sensor_id;sensor_type;location;lat;lon;timestamp;P1;durP1;ratioP1;P2;durP2;ratioP2
36233;SDS011;43467;50.890;5.982;2023-10-08T00:00:13;10.15;;;4.72;;
36233;SDS011;43467;50.890;5.982;2023-10-08T00:02:57;10.50;;;4.78;;
36233;SDS011;43467;50.890;5.982;2023-10-08T00:05:22;8.10;;;4.45;;
36233;SDS011;43467;50.890;5.982;2023-10-08T00:07:48;10.75;;;5.05;;
36233;SDS011;43467;50.890;5.982;2023-10-08T00:10:13;10.60;;;4.60;;
36233;SDS011;43467;50.890;5.982;2023-10-08T00:12:39;9.45;;;4.75;;
36233;SDS011;43467;50.890;5.982;2023-10-08T00:15:05;10.50;;;4.63;;
36233;SDS011;43467;50.890;5.982;2023-10-08T00:17:35;10.07;;;4.40;;
36233;SDS011;43467;50.890;5.982;2023-10-08T00:20:00;7.65;;;4.30;;
36233;SDS011;43467;50.890;5.982;2023-10-08T00:22:28;9.93;;;4.57;;
36233;SDS011;43467;50.890;5.982;2023-10-08T00:25:00;7.63;;;4.13;;
36233;SDS011;43467;50.890;5.982;2023-10-08T00:27:26;9.82;;;4.45;;
36233;SDS011;43467;50.890;5.982;2023-10-08T00:29:51;6.70;;;3.97;;
36233;SDS011;43467;50.890;5.982;2023-10-08T00:32:17;8.32;;;4.45;;
36233;SDS011;43467;50.890;5.982;2023-10-08T00:34:43;9.88;;;4.25;;
36233;SDS011;43467;50.890;5.982;2023-10-08T00:37:09;7.78;;;4.30;;
36233;SDS011;43467;50.890;5.982;2023-10-08T00:39:38;10.75;;;5.05;;
36233;SDS011;43467;50.890;5.982;2023-10-08T00:42:05;7.95;;;4.35;;
36233;SDS011;43467;50.890;5.982;2023-10-08T00:44:32;9.93;;;4.70;;
36233;SDS011;43467;50.890;5.982;2023-10-08T00:47:03;8.00;;;4.25;;
36233;SDS011;43467;50.890;5.982;2023-10-08T00:49:30;12.98;;;5.22;;
36233;SDS011;43467;50.890;5.982;2023-10-08T00:52:09;13.40;;;4.32;;
36233;SDS011;43467;50.890;5.982;2023-10-08T00:54:37;12.05;;;4.30;;
36233;SDS011;43467;50.890;5.982;2023-10-08T00:57:24;9.60;;;4.68;;
36233;SDS011;43467;50.890;5.982;2023-10-08T00:59:51;8.55;;;4.13;;
36233;SDS011;43467;50.890;5.982;2023-10-08T01:02:28;9.27;;;4.28;;
36233;SDS011;43467;50.890;5.982;2023-10-08T01:05:09;11.48;;;4.70;;
36233;SDS011;43467;50.890;5.982;2023-10-08T01:07:37;9.07;;;4.53;;
36233;SDS011;43467;50.890;5.982;2023-10-08T01:10:05;8.82;;;4.47;;
36233;SDS011;43467;50.890;5.982;2023-10-08T01:12:35;9.23;;;4.57;;
36233;SDS011;43467;50.890;5.982;2023-10-08T01:15:09;7.90;;;4.28;;
36233;SDS011;43467;50.890;5.982;2023-10-08T01:17:48;7.63;;;4.22;;
36233;SDS011;43467;50.890;5.982;2023-10-08T01:20:23;9.23;;;4.47;;
36233;SDS011;43467;50.890;5.982;2023-10-08T01:22:59;7.85;;;4.28;;
36233;SDS011;43467;50.890;5.982;2023-10-08T01:25:29;12.82;;;4.50;;
36233;SDS011;43467;50.890;5.982;2023-10-08T01:27:57;9.05;;;4.10;;
36233;SDS011;43467;50.890;5.982;2023-10-08T01:30:27;9.40;;;5.10;;
36233;SDS011;43467;50.890;5.982;2023-10-08T01:32:59;8.98;;;4.53;;
36233;SDS011;43467;50.890;5.982;2023-10-08T01:35:27;7.90;;;4.18;;
36233;SDS011;43467;50.890;5.982;2023-10-08T01:37:53;10.85;;;4.40;;
36233;SDS011;43467;50.890;5.982;2023-10-08T01:40:21;8.60;;;4.22;;
36233;SDS011;43467;50.890;5.982;2023-10-08T01:42:52;7.45;;;4.35;;
36233;SDS011;43467;50.890;5.982;2023-10-08T01:45:18;11.98;;;4.85;;
36233;SDS011;43467;50.890;5.982;2023-10-08T01:47:44;9.65;;;4.38;;
36233;SDS011;43467;50.890;5.982;2023-10-08T01:50:10;10.25;;;4.93;;
36233;SDS011;43467;50.890;5.982;2023-10-08T01:52:54;9.57;;;4.53;;
36233;SDS011;43467;50.890;5.982;2023-10-08T01:55:21;9.85;;;5.03;;
36233;SDS011;43467;50.890;5.982;2023-10-08T01:57:47;11.00;;;5.00;;
36233;SDS011;43467;50.890;5.982;2023-10-08T02:00:15;8.30;;;4.30;;
36233;SDS011;43467;50.890;5.982;2023-10-08T02:02:51;8.90;;;4.18;;
36233;SDS011;43467;50.890;5.982;2023-10-08T02:05:23;10.98;;;4.93;;
36233;SDS011;43467;50.890;5.982;2023-10-08T02:07:50;6.53;;;3.88;;
36233;SDS011;43467;50.890;5.982;2023-10-08T02:10:16;9.68;;;4.25;;
36233;SDS011;43467;50.890;5.982;2023-10-08T02:12:41;6.85;;;4.10;;
36233;SDS011;43467;50.890;5.982;2023-10-08T02:15:07;6.40;;;4.10;;
36233;SDS011;43467;50.890;5.982;2023-10-08T02:17:34;11.30;;;4.85;;
36233;SDS011;43467;50.890;5.982;2023-10-08T02:20:00;8.82;;;4.70;;
36233;SDS011;43467;50.890;5.982;2023-10-08T02:22:30;8.95;;;4.82;;
36233;SDS011;43467;50.890;5.982;2023-10-08T02:24:55;8.73;;;4.47;;
36233;SDS011;43467;50.890;5.982;2023-10-08T02:27:26;11.10;;;4.45;;
36233;SDS011;43467;50.890;5.982;2023-10-08T02:29:54;13.30;;;4.80;;
36233;SDS011;43467;50.890;5.982;2023-10-08T02:32:20;12.27;;;4.65;;
36233;SDS011;43467;50.890;5.982;2023-10-08T02:37:22;11.88;;;4.15;;
36233;SDS011;43467;50.890;5.982;2023-10-08T02:39:47;8.68;;;4.30;;
36233;SDS011;43467;50.890;5.982;2023-10-08T02:42:13;10.95;;;5.68;;
36233;SDS011;43467;50.890;5.982;2023-10-08T02:44:39;11.07;;;4.60;;
36233;SDS011;43467;50.890;5.982;2023-10-08T02:47:08;10.32;;;4.45;;
36233;SDS011;43467;50.890;5.982;2023-10-08T02:49:37;10.38;;;4.63;;
36233;SDS011;43467;50.890;5.982;2023-10-08T02:52:06;8.70;;;4.68;;
36233;SDS011;43467;50.890;5.982;2023-10-08T02:54:33;9.35;;;4.95;;
36233;SDS011;43467;50.890;5.982;2023-10-08T02:57:02;9.95;;;4.22;;
36233;SDS011;43467;50.890;5.982;2023-10-08T02:59:39;8.48;;;4.70;;
36233;SDS011;43467;50.890;5.982;2023-10-08T03:02:09;11.07;;;4.35;;
36233;SDS011;43467;50.890;5.982;2023-10-08T03:04:46;10.40;;;5.15;;
36233;SDS011;43467;50.890;5.982;2023-10-08T03:07:13;10.38;;;4.60;;
36233;SDS011;43467;50.890;5.982;2023-10-08T03:12:42;9.00;;;4.80;;
36233;SDS011;43467;50.890;5.982;2023-10-08T03:15:08;7.80;;;4.25;;
36233;SDS011;43467;50.890;5.982;2023-10-08T03:18:03;13.82;;;4.50;;
36233;SDS011;43467;50.890;5.982;2023-10-08T03:20:38;9.57;;;4.68;;
36233;SDS011;43467;50.890;5.982;2023-10-08T03:23:08;9.70;;;4.80;;
36233;SDS011;43467;50.890;5.982;2023-10-08T03:25:54;13.93;;;4.05;;
36233;SDS011;43467;50.890;5.982;2023-10-08T03:28:40;9.45;;;4.68;;
36233;SDS011;43467;50.890;5.982;2023-10-08T03:31:06;11.20;;;4.55;;
36233;SDS011;43467;50.890;5.982;2023-10-08T03:33:39;11.73;;;5.18;;
36233;SDS011;43467;50.890;5.982;2023-10-08T03:36:05;6.95;;;4.10;;
36233;SDS011;43467;50.890;5.982;2023-10-08T03:38:51;7.55;;;4.18;;
36233;SDS011;43467;50.890;5.982;2023-10-08T03:41:25;9.40;;;4.75;;
36233;SDS011;43467;50.890;5.982;2023-10-08T03:44:10;7.28;;;4.20;;
36233;SDS011;43467;50.890;5.982;2023-10-08T03:46:38;12.88;;;4.85;;
36233;SDS011;43467;50.890;5.982;2023-10-08T03:49:08;8.18;;;4.47;;
36233;SDS011;43467;50.890;5.982;2023-10-08T03:51:41;10.07;;;4.43;;
36233;SDS011;43467;50.890;5.982;2023-10-08T03:54:07;8.95;;;4.47;;
36233;SDS011;43467;50.890;5.982;2023-10-08T03:56:32;9.07;;;4.57;;
36233;SDS011;43467;50.890;5.982;2023-10-08T03:59:01;8.55;;;4.60;;
36233;SDS011;43467;50.890;5.982;2023-10-08T04:01:45;10.27;;;4.20;;
36233;SDS011;43467;50.890;5.982;2023-10-08T04:04:11;12.07;;;4.70;;
36233;SDS011;43467;50.890;5.982;2023-10-08T04:06:39;11.90;;;4.50;;
36233;SDS011;43467;50.890;5.982;2023-10-08T04:09:13;9.23;;;4.38;;
36233;SDS011;43467;50.890;5.982;2023-10-08T04:11:49;10.38;;;4.70;;
36233;SDS011;43467;50.890;5.982;2023-10-08T04:14:21;7.95;;;4.15;;
36233;SDS011;43467;50.890;5.982;2023-10-08T04:16:48;16.35;;;5.18;;
36233;SDS011;43467;50.890;5.982;2023-10-08T04:19:16;10.57;;;4.50;;
36233;SDS011;43467;50.890;5.982;2023-10-08T04:21:43;10.00;;;4.07;;
36233;SDS011;43467;50.890;5.982;2023-10-08T04:24:10;10.15;;;4.47;;
36233;SDS011;43467;50.890;5.982;2023-10-08T04:26:39;12.25;;;5.07;;
36233;SDS011;43467;50.890;5.982;2023-10-08T04:29:06;9.73;;;5.07;;
36233;SDS011;43467;50.890;5.982;2023-10-08T04:31:35;10.30;;;4.50;;
36233;SDS011;43467;50.890;5.982;2023-10-08T04:34:04;9.32;;;4.88;;
36233;SDS011;43467;50.890;5.982;2023-10-08T04:36:47;10.75;;;4.95;;
36233;SDS011;43467;50.890;5.982;2023-10-08T04:39:19;17.40;;;4.50;;
36233;SDS011;43467;50.890;5.982;2023-10-08T04:42:06;9.52;;;4.72;;
36233;SDS011;43467;50.890;5.982;2023-10-08T04:44:39;7.40;;;4.30;;
36233;SDS011;43467;50.890;5.982;2023-10-08T04:47:06;12.25;;;4.70;;
36233;SDS011;43467;50.890;5.982;2023-10-08T04:49:33;11.55;;;4.57;;
36233;SDS011;43467;50.890;5.982;2023-10-08T04:52:00;13.45;;;4.93;;
36233;SDS011;43467;50.890;5.982;2023-10-08T04:54:39;8.40;;;4.75;;
36233;SDS011;43467;50.890;5.982;2023-10-08T04:57:06;11.98;;;5.30;;
36233;SDS011;43467;50.890;5.982;2023-10-08T04:59:40;12.63;;;4.82;;
36233;SDS011;43467;50.890;5.982;2023-10-08T05:02:09;11.63;;;5.18;;
36233;SDS011;43467;50.890;5.982;2023-10-08T05:04:45;8.05;;;4.15;;
36233;SDS011;43467;50.890;5.982;2023-10-08T05:07:17;10.77;;;4.78;;
36233;SDS011;43467;50.890;5.982;2023-10-08T05:09:47;12.60;;;5.78;;
36233;SDS011;43467;50.890;5.982;2023-10-08T05:12:28;9.65;;;4.80;;
36233;SDS011;43467;50.890;5.982;2023-10-08T05:15:11;9.77;;;4.65;;
36233;SDS011;43467;50.890;5.982;2023-10-08T05:17:45;10.82;;;4.72;;
36233;SDS011;43467;50.890;5.982;2023-10-08T05:20:15;11.45;;;5.53;;
36233;SDS011;43467;50.890;5.982;2023-10-08T05:23:07;9.13;;;5.10;;
36233;SDS011;43467;50.890;5.982;2023-10-08T05:25:53;9.95;;;4.18;;
36233;SDS011;43467;50.890;5.982;2023-10-08T05:28:24;15.50;;;5.05;;
36233;SDS011;43467;50.890;5.982;2023-10-08T05:30:50;9.98;;;4.93;;
36233;SDS011;43467;50.890;5.982;2023-10-08T05:33:35;10.18;;;4.35;;
36233;SDS011;43467;50.890;5.982;2023-10-08T05:36:23;14.23;;;4.82;;
36233;SDS011;43467;50.890;5.982;2023-10-08T05:39:18;12.35;;;4.88;;
36233;SDS011;43467;50.890;5.982;2023-10-08T05:41:50;11.95;;;5.25;;
36233;SDS011;43467;50.890;5.982;2023-10-08T05:44:41;9.02;;;5.03;;
36233;SDS011;43467;50.890;5.982;2023-10-08T05:47:26;11.90;;;4.28;;
36233;SDS011;43467;50.890;5.982;2023-10-08T05:49:58;10.98;;;4.50;;
36233;SDS011;43467;50.890;5.982;2023-10-08T05:52:42;9.40;;;5.20;;
36233;SDS011;43467;50.890;5.982;2023-10-08T05:55:32;10.85;;;4.88;;
36233;SDS011;43467;50.890;5.982;2023-10-08T05:58:12;11.15;;;5.15;;
36233;SDS011;43467;50.890;5.982;2023-10-08T06:00:38;8.23;;;4.90;;
36233;SDS011;43467;50.890;5.982;2023-10-08T06:03:16;12.07;;;4.88;;
36233;SDS011;43467;50.890;5.982;2023-10-08T06:06:04;8.93;;;5.03;;
36233;SDS011;43467;50.890;5.982;2023-10-08T06:08:36;9.98;;;4.85;;
36233;SDS011;43467;50.890;5.982;2023-10-08T06:11:17;10.05;;;4.85;;
36233;SDS011;43467;50.890;5.982;2023-10-08T06:14:15;9.75;;;4.45;;
36233;SDS011;43467;50.890;5.982;2023-10-08T06:17:12;13.75;;;4.97;;
36233;SDS011;43467;50.890;5.982;2023-10-08T06:20:00;10.43;;;5.45;;
36233;SDS011;43467;50.890;5.982;2023-10-08T06:22:34;13.32;;;6.30;;
36233;SDS011;43467;50.890;5.982;2023-10-08T06:25:00;12.02;;;5.57;;
36233;SDS011;43467;50.890;5.982;2023-10-08T06:27:42;10.38;;;4.43;;
36233;SDS011;43467;50.890;5.982;2023-10-08T06:30:10;12.98;;;5.60;;
36233;SDS011;43467;50.890;5.982;2023-10-08T06:32:41;11.27;;;5.25;;
36233;SDS011;43467;50.890;5.982;2023-10-08T06:35:09;10.50;;;5.03;;
36233;SDS011;43467;50.890;5.982;2023-10-08T06:37:42;17.52;;;5.85;;
36233;SDS011;43467;50.890;5.982;2023-10-08T06:40:08;11.15;;;5.72;;
36233;SDS011;43467;50.890;5.982;2023-10-08T06:42:54;8.70;;;4.80;;
36233;SDS011;43467;50.890;5.982;2023-10-08T06:45:22;14.52;;;6.78;;
36233;SDS011;43467;50.890;5.982;2023-10-08T06:47:47;10.05;;;5.13;;
36233;SDS011;43467;50.890;5.982;2023-10-08T06:50:15;11.73;;;4.80;;
36233;SDS011;43467;50.890;5.982;2023-10-08T06:52:41;10.95;;;4.90;;
36233;SDS011;43467;50.890;5.982;2023-10-08T06:55:08;12.23;;;5.07;;
36233;SDS011;43467;50.890;5.982;2023-10-08T06:57:37;10.45;;;5.32;;
36233;SDS011;43467;50.890;5.982;2023-10-08T07:00:04;14.65;;;6.45;;
36233;SDS011;43467;50.890;5.982;2023-10-08T07:02:37;16.47;;;5.83;;
36233;SDS011;43467;50.890;5.982;2023-10-08T07:05:04;11.32;;;5.20;;
36233;SDS011;43467;50.890;5.982;2023-10-08T07:07:34;11.27;;;5.47;;
36233;SDS011;43467;50.890;5.982;2023-10-08T07:10:05;13.02;;;5.75;;
36233;SDS011;43467;50.890;5.982;2023-10-08T07:12:35;10.70;;;5.07;;
36233;SDS011;43467;50.890;5.982;2023-10-08T07:15:01;10.95;;;5.32;;
36233;SDS011;43467;50.890;5.982;2023-10-08T07:17:28;12.40;;;5.10;;
36233;SDS011;43467;50.890;5.982;2023-10-08T07:20:05;11.68;;;4.80;;
36233;SDS011;43467;50.890;5.982;2023-10-08T07:22:38;10.57;;;5.05;;
36233;SDS011;43467;50.890;5.982;2023-10-08T07:25:05;14.40;;;5.10;;
36233;SDS011;43467;50.890;5.982;2023-10-08T07:27:34;10.35;;;4.95;;
36233;SDS011;43467;50.890;5.982;2023-10-08T07:30:03;14.70;;;6.13;;
36233;SDS011;43467;50.890;5.982;2023-10-08T07:32:38;11.02;;;5.22;;
36233;SDS011;43467;50.890;5.982;2023-10-08T07:35:04;8.55;;;4.70;;
36233;SDS011;43467;50.890;5.982;2023-10-08T07:37:50;10.38;;;4.75;;
36233;SDS011;43467;50.890;5.982;2023-10-08T07:40:19;11.88;;;4.72;;
36233;SDS011;43467;50.890;5.982;2023-10-08T07:42:46;16.90;;;5.72;;
36233;SDS011;43467;50.890;5.982;2023-10-08T07:45:16;10.95;;;5.55;;
36233;SDS011;43467;50.890;5.982;2023-10-08T07:47:46;10.95;;;5.07;;
36233;SDS011;43467;50.890;5.982;2023-10-08T07:50:13;12.55;;;5.32;;
36233;SDS011;43467;50.890;5.982;2023-10-08T07:52:40;12.40;;;5.57;;
36233;SDS011;43467;50.890;5.982;2023-10-08T07:55:09;8.73;;;5.30;;
36233;SDS011;43467;50.890;5.982;2023-10-08T07:57:35;12.10;;;5.43;;
36233;SDS011;43467;50.890;5.982;2023-10-08T08:00:00;12.27;;;5.53;;
36233;SDS011;43467;50.890;5.982;2023-10-08T08:02:43;12.65;;;5.55;;
36233;SDS011;43467;50.890;5.982;2023-10-08T08:05:09;12.15;;;5.57;;
36233;SDS011;43467;50.890;5.982;2023-10-08T08:07:34;13.82;;;5.82;;
36233;SDS011;43467;50.890;5.982;2023-10-08T08:10:00;16.67;;;5.88;;
36233;SDS011;43467;50.890;5.982;2023-10-08T08:12:26;12.30;;;5.10;;
36233;SDS011;43467;50.890;5.982;2023-10-08T08:14:58;10.18;;;5.15;;
36233;SDS011;43467;50.890;5.982;2023-10-08T08:17:24;9.30;;;5.13;;
36233;SDS011;43467;50.890;5.982;2023-10-08T08:19:50;15.95;;;6.47;;
36233;SDS011;43467;50.890;5.982;2023-10-08T08:22:17;10.30;;;5.00;;
36233;SDS011;43467;50.890;5.982;2023-10-08T08:24:50;12.02;;;5.78;;
36233;SDS011;43467;50.890;5.982;2023-10-08T08:27:24;11.02;;;5.85;;
36233;SDS011;43467;50.890;5.982;2023-10-08T08:29:57;15.57;;;5.95;;
36233;SDS011;43467;50.890;5.982;2023-10-08T08:32:35;11.05;;;5.20;;
36233;SDS011;43467;50.890;5.982;2023-10-08T08:35:05;13.80;;;5.80;;
36233;SDS011;43467;50.890;5.982;2023-10-08T08:37:32;11.90;;;5.72;;
36233;SDS011;43467;50.890;5.982;2023-10-08T08:40:01;13.73;;;6.18;;
36233;SDS011;43467;50.890;5.982;2023-10-08T08:42:30;12.95;;;5.80;;
36233;SDS011;43467;50.890;5.982;2023-10-08T08:45:00;14.15;;;6.72;;
36233;SDS011;43467;50.890;5.982;2023-10-08T08:47:33;15.25;;;6.40;;
36233;SDS011;43467;50.890;5.982;2023-10-08T08:50:00;12.60;;;6.68;;
36233;SDS011;43467;50.890;5.982;2023-10-08T08:52:34;11.98;;;6.22;;
36233;SDS011;43467;50.890;5.982;2023-10-08T08:55:02;14.68;;;6.18;;
36233;SDS011;43467;50.890;5.982;2023-10-08T08:57:39;13.57;;;6.28;;
36233;SDS011;43467;50.890;5.982;2023-10-08T09:00:07;15.85;;;6.55;;
36233;SDS011;43467;50.890;5.982;2023-10-08T09:02:37;37.40;;;21.75;;
36233;SDS011;43467;50.890;5.982;2023-10-08T09:05:03;13.05;;;6.22;;
36233;SDS011;43467;50.890;5.982;2023-10-08T09:08:00;16.45;;;6.28;;
36233;SDS011;43467;50.890;5.982;2023-10-08T09:10:29;13.98;;;7.18;;
36233;SDS011;43467;50.890;5.982;2023-10-08T09:13:02;12.93;;;7.05;;
36233;SDS011;43467;50.890;5.982;2023-10-08T09:15:28;15.23;;;7.00;;
36233;SDS011;43467;50.890;5.982;2023-10-08T09:17:54;19.67;;;7.72;;
36233;SDS011;43467;50.890;5.982;2023-10-08T09:20:21;18.42;;;7.03;;
36233;SDS011;43467;50.890;5.982;2023-10-08T09:23:04;17.95;;;7.18;;
36233;SDS011;43467;50.890;5.982;2023-10-08T09:25:32;18.90;;;7.93;;
36233;SDS011;43467;50.890;5.982;2023-10-08T09:27:58;19.50;;;7.18;;
36233;SDS011;43467;50.890;5.982;2023-10-08T09:30:23;15.68;;;6.78;;
36233;SDS011;43467;50.890;5.982;2023-10-08T09:32:51;16.02;;;7.53;;
36233;SDS011;43467;50.890;5.982;2023-10-08T09:35:17;17.98;;;7.30;;
36233;SDS011;43467;50.890;5.982;2023-10-08T09:37:44;13.57;;;7.38;;
36233;SDS011;43467;50.890;5.982;2023-10-08T09:40:11;18.63;;;7.57;;
36233;SDS011;43467;50.890;5.982;2023-10-08T09:42:39;15.35;;;7.25;;
36233;SDS011;43467;50.890;5.982;2023-10-08T09:45:07;16.40;;;7.68;;
36233;SDS011;43467;50.890;5.982;2023-10-08T09:47:34;18.63;;;8.07;;
36233;SDS011;43467;50.890;5.982;2023-10-08T09:50:03;18.30;;;8.02;;
36233;SDS011;43467;50.890;5.982;2023-10-08T09:52:42;21.60;;;8.00;;
36233;SDS011;43467;50.890;5.982;2023-10-08T09:55:25;14.40;;;7.10;;
36233;SDS011;43467;50.890;5.982;2023-10-08T09:57:52;13.75;;;7.22;;
36233;SDS011;43467;50.890;5.982;2023-10-08T10:00:20;15.10;;;7.63;;
36233;SDS011;43467;50.890;5.982;2023-10-08T10:02:56;15.50;;;6.78;;
36233;SDS011;43467;50.890;5.982;2023-10-08T10:05:27;20.00;;;7.63;;
36233;SDS011;43467;50.890;5.982;2023-10-08T10:07:55;20.13;;;8.13;;
36233;SDS011;43467;50.890;5.982;2023-10-08T10:10:26;25.90;;;7.50;;
36233;SDS011;43467;50.890;5.982;2023-10-08T10:15:25;13.32;;;6.95;;
36233;SDS011;43467;50.890;5.982;2023-10-08T10:17:51;18.25;;;8.20;;
36233;SDS011;43467;50.890;5.982;2023-10-08T10:20:17;13.77;;;7.35;;
36233;SDS011;43467;50.890;5.982;2023-10-08T10:22:43;22.98;;;8.50;;
36233;SDS011;43467;50.890;5.982;2023-10-08T10:25:09;17.90;;;7.22;;
36233;SDS011;43467;50.890;5.982;2023-10-08T10:30:24;19.45;;;7.47;;
36233;SDS011;43467;50.890;5.982;2023-10-08T10:32:53;19.92;;;7.45;;
36233;SDS011;43467;50.890;5.982;2023-10-08T10:35:19;19.73;;;9.45;;
36233;SDS011;43467;50.890;5.982;2023-10-08T10:37:48;22.20;;;9.00;;
36233;SDS011;43467;50.890;5.982;2023-10-08T10:40:20;16.10;;;8.85;;
36233;SDS011;43467;50.890;5.982;2023-10-08T10:42:57;16.85;;;8.50;;
36233;SDS011;43467;50.890;5.982;2023-10-08T10:45:28;20.92;;;8.82;;
36233;SDS011;43467;50.890;5.982;2023-10-08T10:48:08;16.00;;;7.90;;
36233;SDS011;43467;50.890;5.982;2023-10-08T10:50:46;17.75;;;8.10;;
36233;SDS011;43467;50.890;5.982;2023-10-08T10:53:37;15.50;;;7.95;;
36233;SDS011;43467;50.890;5.982;2023-10-08T10:56:16;13.68;;;7.78;;
36233;SDS011;43467;50.890;5.982;2023-10-08T10:58:58;14.85;;;7.15;;
36233;SDS011;43467;50.890;5.982;2023-10-08T11:01:27;18.92;;;8.50;;
36233;SDS011;43467;50.890;5.982;2023-10-08T11:03:55;18.42;;;8.38;;
36233;SDS011;43467;50.890;5.982;2023-10-08T11:06:22;21.27;;;9.30;;
36233;SDS011;43467;50.890;5.982;2023-10-08T11:08:50;16.50;;;8.70;;
36233;SDS011;43467;50.890;5.982;2023-10-08T11:11:19;20.95;;;10.35;;
36233;SDS011;43467;50.890;5.982;2023-10-08T11:13:59;23.75;;;9.55;;
36233;SDS011;43467;50.890;5.982;2023-10-08T11:16:25;24.50;;;10.13;;
36233;SDS011;43467;50.890;5.982;2023-10-08T11:18:52;18.75;;;8.73;;
36233;SDS011;43467;50.890;5.982;2023-10-08T11:21:23;28.83;;;10.18;;
36233;SDS011;43467;50.890;5.982;2023-10-08T11:23:51;20.50;;;8.57;;
36233;SDS011;43467;50.890;5.982;2023-10-08T11:26:36;18.35;;;8.48;;
36233;SDS011;43467;50.890;5.982;2023-10-08T11:29:19;22.55;;;9.38;;
36233;SDS011;43467;50.890;5.982;2023-10-08T11:31:50;25.67;;;9.70;;
36233;SDS011;43467;50.890;5.982;2023-10-08T11:34:16;17.10;;;8.55;;
36233;SDS011;43467;50.890;5.982;2023-10-08T11:36:44;17.92;;;8.25;;
36233;SDS011;43467;50.890;5.982;2023-10-08T11:39:18;20.92;;;7.95;;
36233;SDS011;43467;50.890;5.982;2023-10-08T11:42:02;20.27;;;8.63;;
36233;SDS011;43467;50.890;5.982;2023-10-08T11:44:29;23.20;;;9.02;;
36233;SDS011;43467;50.890;5.982;2023-10-08T11:46:55;15.55;;;7.30;;
36233;SDS011;43467;50.890;5.982;2023-10-08T11:49:29;21.05;;;9.23;;
36233;SDS011;43467;50.890;5.982;2023-10-08T11:51:57;18.65;;;8.68;;
36233;SDS011;43467;50.890;5.982;2023-10-08T11:54:23;16.40;;;7.95;;
36233;SDS011;43467;50.890;5.982;2023-10-08T11:56:48;20.13;;;9.65;;
36233;SDS011;43467;50.890;5.982;2023-10-08T11:59:14;20.25;;;8.52;;
36233;SDS011;43467;50.890;5.982;2023-10-08T12:01:43;17.73;;;8.18;;
36233;SDS011;43467;50.890;5.982;2023-10-08T12:04:09;19.85;;;7.30;;
36233;SDS011;43467;50.890;5.982;2023-10-08T12:06:41;19.77;;;8.10;;
36233;SDS011;43467;50.890;5.982;2023-10-08T12:09:15;25.90;;;8.57;;
36233;SDS011;43467;50.890;5.982;2023-10-08T12:11:40;18.50;;;7.88;;
36233;SDS011;43467;50.890;5.982;2023-10-08T12:14:06;17.88;;;8.25;;
36233;SDS011;43467;50.890;5.982;2023-10-08T12:16:31;18.45;;;7.93;;
36233;SDS011;43467;50.890;5.982;2023-10-08T12:19:00;17.60;;;8.30;;
36233;SDS011;43467;50.890;5.982;2023-10-08T12:21:27;20.13;;;8.68;;
36233;SDS011;43467;50.890;5.982;2023-10-08T12:23:54;19.27;;;7.90;;
36233;SDS011;43467;50.890;5.982;2023-10-08T12:26:22;20.92;;;8.45;;
36233;SDS011;43467;50.890;5.982;2023-10-08T12:28:47;20.58;;;8.65;;
36233;SDS011;43467;50.890;5.982;2023-10-08T12:31:17;23.20;;;8.18;;
36233;SDS011;43467;50.890;5.982;2023-10-08T12:33:47;21.55;;;7.78;;
36233;SDS011;43467;50.890;5.982;2023-10-08T12:36:13;23.67;;;9.07;;
36233;SDS011;43467;50.890;5.982;2023-10-08T12:38:40;17.60;;;8.18;;
36233;SDS011;43467;50.890;5.982;2023-10-08T12:41:06;19.73;;;8.80;;
36233;SDS011;43467;50.890;5.982;2023-10-08T12:43:38;16.02;;;7.13;;
36233;SDS011;43467;50.890;5.982;2023-10-08T12:46:07;17.83;;;7.93;;
36233;SDS011;43467;50.890;5.982;2023-10-08T12:48:36;20.42;;;10.32;;
36233;SDS011;43467;50.890;5.982;2023-10-08T12:51:03;14.88;;;8.35;;
36233;SDS011;43467;50.890;5.982;2023-10-08T12:53:31;19.88;;;8.65;;
36233;SDS011;43467;50.890;5.982;2023-10-08T12:56:01;23.85;;;9.55;;
36233;SDS011;43467;50.890;5.982;2023-10-08T12:58:42;17.42;;;7.68;;
36233;SDS011;43467;50.890;5.982;2023-10-08T13:01:16;19.35;;;7.18;;
36233;SDS011;43467;50.890;5.982;2023-10-08T13:03:43;15.23;;;7.35;;
36233;SDS011;43467;50.890;5.982;2023-10-08T13:06:19;16.23;;;7.53;;
36233;SDS011;43467;50.890;5.982;2023-10-08T13:08:53;20.48;;;7.40;;
36233;SDS011;43467;50.890;5.982;2023-10-08T13:11:20;20.75;;;7.47;;
36233;SDS011;43467;50.890;5.982;2023-10-08T13:13:51;15.77;;;7.93;;
36233;SDS011;43467;50.890;5.982;2023-10-08T13:16:17;18.58;;;8.10;;
36233;SDS011;43467;50.890;5.982;2023-10-08T13:18:46;21.60;;;9.13;;
36233;SDS011;43467;50.890;5.982;2023-10-08T13:21:12;17.88;;;8.68;;
36233;SDS011;43467;50.890;5.982;2023-10-08T13:23:37;24.45;;;8.52;;
36233;SDS011;43467;50.890;5.982;2023-10-08T13:26:03;21.80;;;7.63;;
36233;SDS011;43467;50.890;5.982;2023-10-08T13:28:34;16.38;;;8.13;;
36233;SDS011;43467;50.890;5.982;2023-10-08T13:31:01;21.10;;;8.23;;
36233;SDS011;43467;50.890;5.982;2023-10-08T13:33:41;20.90;;;8.10;;
36233;SDS011;43467;50.890;5.982;2023-10-08T13:36:09;16.40;;;7.90;;
36233;SDS011;43467;50.890;5.982;2023-10-08T13:38:36;20.35;;;8.55;;
36233;SDS011;43467;50.890;5.982;2023-10-08T13:41:05;18.50;;;8.05;;
36233;SDS011;43467;50.890;5.982;2023-10-08T13:43:52;21.40;;;7.55;;
36233;SDS011;43467;50.890;5.982;2023-10-08T13:46:17;20.88;;;7.10;;
36233;SDS011;43467;50.890;5.982;2023-10-08T13:48:45;28.63;;;7.90;;
36233;SDS011;43467;50.890;5.982;2023-10-08T13:51:14;18.77;;;7.90;;
36233;SDS011;43467;50.890;5.982;2023-10-08T13:53:40;17.33;;;7.85;;
36233;SDS011;43467;50.890;5.982;2023-10-08T13:56:10;19.20;;;6.93;;
36233;SDS011;43467;50.890;5.982;2023-10-08T13:58:37;17.05;;;7.47;;
36233;SDS011;43467;50.890;5.982;2023-10-08T14:01:10;21.90;;;7.78;;
36233;SDS011;43467;50.890;5.982;2023-10-08T14:03:45;24.08;;;8.70;;
36233;SDS011;43467;50.890;5.982;2023-10-08T14:06:14;18.50;;;8.35;;
36233;SDS011;43467;50.890;5.982;2023-10-08T14:08:42;16.15;;;7.65;;
36233;SDS011;43467;50.890;5.982;2023-10-08T14:11:31;19.65;;;8.70;;
36233;SDS011;43467;50.890;5.982;2023-10-08T14:13:58;23.98;;;8.00;;
36233;SDS011;43467;50.890;5.982;2023-10-08T14:16:27;18.17;;;7.93;;
36233;SDS011;43467;50.890;5.982;2023-10-08T14:18:54;17.60;;;6.85;;
36233;SDS011;43467;50.890;5.982;2023-10-08T14:21:23;19.38;;;6.60;;
36233;SDS011;43467;50.890;5.982;2023-10-08T14:23:55;16.58;;;7.32;;
36233;SDS011;43467;50.890;5.982;2023-10-08T14:26:28;19.42;;;7.65;;
36233;SDS011;43467;50.890;5.982;2023-10-08T14:29:00;19.02;;;6.78;;
36233;SDS011;43467;50.890;5.982;2023-10-08T14:31:33;18.60;;;6.97;;
36233;SDS011;43467;50.890;5.982;2023-10-08T14:33:59;18.42;;;6.97;;
36233;SDS011;43467;50.890;5.982;2023-10-08T14:36:45;17.80;;;7.25;;
36233;SDS011;43467;50.890;5.982;2023-10-08T14:39:30;21.08;;;7.75;;
36233;SDS011;43467;50.890;5.982;2023-10-08T14:42:15;15.30;;;7.22;;
36233;SDS011;43467;50.890;5.982;2023-10-08T14:45:00;15.57;;;6.25;;
36233;SDS011;43467;50.890;5.982;2023-10-08T14:47:27;18.23;;;6.93;;
36233;SDS011;43467;50.890;5.982;2023-10-08T14:49:52;18.77;;;7.25;;
36233;SDS011;43467;50.890;5.982;2023-10-08T14:52:18;22.63;;;7.50;;
36233;SDS011;43467;50.890;5.982;2023-10-08T14:54:44;19.77;;;8.02;;
36233;SDS011;43467;50.890;5.982;2023-10-08T14:57:10;15.57;;;6.03;;
36233;SDS011;43467;50.890;5.982;2023-10-08T14:59:39;20.42;;;7.18;;
36233;SDS011;43467;50.890;5.982;2023-10-08T15:02:05;21.27;;;6.03;;
36233;SDS011;43467;50.890;5.982;2023-10-08T15:04:32;15.43;;;6.25;;
36233;SDS011;43467;50.890;5.982;2023-10-08T15:07:00;19.48;;;6.90;;
36233;SDS011;43467;50.890;5.982;2023-10-08T15:09:27;17.58;;;6.25;;
36233;SDS011;43467;50.890;5.982;2023-10-08T15:11:53;13.57;;;5.63;;